Main page
METAR-TAF:

METAR-TAF

Airports :

Pruniers

Romorantin, France

latitude: 47-19N, longitude: 001-41E, elevation: 85 m

Current weather observation

The report was made 21 minutes ago, at 19:30 UTC
Wind 2 kt from the South/Southwest
Temperature 15°C
Humidity 100%
Pressure 1015 hPa
Visibility: 6000 m

METAR: LFYR 211930Z AUTO 20002KT 6000 NSC 15/15 Q1015

Time: 21:51 (19:51 UTC)


TAF: missing

Weather observations and forecasts of more than 4000 airports (METAR and TAF reports).

The available stations are represented by yellow and red dots on the map.

Hover mouse over dot to see the name of the station.

Then click to see weather observations and forecasts.

To change the map : click on the green buttons with a black cross to zoom in, on the green button with a dash to zoom out, or on the green arrows for adjacent maps.


METAR-TAF: